Time;durP1;ratioP1;P1;durP2;ratioP2;P2;SDS_P1;SDS_P2;PMS_P1;PMS_P2;Temp;Humidity;BMP_temperature;BMP_pressure;BME280_temperature;BME280_humidity;BME280_pressure;Samples;Min_cycle;Max_cycle;Signal;HPM_P1;HPM_P2
2022/07/12 00:02:12;;;;;;;3.20;1.20;;;;;;;15.40;81.30;101101.35;5114493;57;1136901;-66
2022/07/12 00:07:18;;;;;;;1.50;1.40;;;;;;;15.20;81.85;101098.25;5149649;57;1137247;-66
2022/07/12 00:12:23;;;;;;;3.23;0.77;;;;;;;14.95;82.27;101102.23;5155872;57;1137275;-66
2022/07/12 00:17:29;;;;;;;1.93;0.80;;;;;;;14.76;83.11;101102.96;5156037;57;1136631;-66
2022/07/12 00:22:35;;;;;;;2.97;1.10;;;;;;;14.61;83.75;101102.09;5155928;57;1136939;-66
2022/07/12 00:27:41;;;;;;;1.13;1.00;;;;;;;14.53;84.51;101096.56;5155757;57;1136407;-66
2022/07/12 00:32:47;;;;;;;2.70;1.00;;;;;;;14.50;85.27;101095.52;5199533;56;1136927;-66
2022/07/12 00:37:53;;;;;;;2.50;0.90;;;;;;;14.36;85.86;101090.81;5218188;56;1137051;-66
2022/07/12 00:42:59;;;;;;;1.47;0.80;;;;;;;14.17;86.14;101103.16;5218232;56;1137165;-66
2022/07/12 00:48:06;;;;;;;0.73;0.70;;;;;;;14.15;86.84;101095.78;5260203;55;1136944;-67
2022/07/12 00:53:18;;;;;;;2.10;0.77;;;;;;;14.26;87.21;101098.37;5270478;55;1136947;-67
2022/07/12 00:58:23;;;;;;;2.50;1.53;;;;;;;14.22;87.33;101093.80;5219528;55;1136962;-67
2022/07/12 01:03:29;;;;;;;5.67;1.70;;;;;;;14.18;87.70;101095.05;5167358;56;1137175;-67
2022/07/12 01:08:35;;;;;;;6.17;1.03;;;;;;;14.15;88.04;101094.45;5216336;56;1136914;-66
2022/07/12 01:13:42;;;;;;;1.40;0.90;;;;;;;14.11;88.19;101092.52;5218042;56;1134897;-67
2022/07/12 01:18:49;;;;;;;1.32;1.05;;;;;;;14.11;88.68;101087.69;5233881;56;1138823;-67
2022/07/12 01:23:55;;;;;;;3.08;1.60;;;;;;;14.15;89.07;101083.33;5164255;57;1139163;-68
2022/07/12 01:29:01;;;;;;;4.07;1.60;;;;;;;14.19;89.37;101075.94;5128872;56;1139278;-67
2022/07/12 01:34:07;;;;;;;4.95;1.62;;;;;;;14.18;89.57;101074.25;5163524;56;1139480;-66
2022/07/12 01:39:13;;;;;;;5.33;1.40;;;;;;;14.27;90.45;101071.64;5140772;57;1139399;-66
2022/07/12 01:44:18;;;;;;;6.60;1.60;;;;;;;14.42;90.23;101063.73;5142078;57;1139320;-66
2022/07/12 01:49:26;;;;;;;1.43;1.33;;;;;;;14.47;89.55;101069.16;5198657;56;1138967;-66
2022/07/12 01:54:31;;;;;;;1.53;1.20;;;;;;;14.32;89.72;101058.81;5139236;56;1139111;-66
2022/07/12 01:59:37;;;;;;;1.43;1.30;;;;;;;14.19;90.16;101055.98;5246562;56;1139099;-66
2022/07/12 02:04:43;;;;;;;5.97;1.20;;;;;;;14.12;90.44;101078.25;5246439;56;1139231;-66
2022/07/12 02:09:49;;;;;;;3.90;1.40;;;;;;;14.18;91.21;101069.77;5246459;56;1139429;-66
2022/07/12 02:14:55;;;;;;;1.37;1.27;;;;;;;14.33;91.20;101073.80;5246565;56;1139247;-66
2022/07/12 02:20:01;;;;;;;3.40;1.50;;;;;;;14.42;91.33;101074.86;5246348;56;1139385;-67
2022/07/12 02:25:08;;;;;;;2.97;1.57;;;;;;;14.54;91.78;101076.96;5246450;56;1139170;-66
2022/07/12 02:30:14;;;;;;;3.50;1.20;;;;;;;14.69;91.90;101080.97;5204846;56;1139241;-66
2022/07/12 02:35:20;;;;;;;2.93;1.23;;;;;;;14.64;91.09;101076.55;5132162;56;1139081;-66
2022/07/12 02:45:50;;;;;;;1.67;1.23;;;;;;;14.42;91.21;101086.84;5106721;56;1139045;-66
2022/07/12 02:50:55;;;;;;;2.07;1.10;;;;;;;14.41;91.60;101085.99;5107943;57;1139301;-66
2022/07/12 02:56:02;;;;;;;5.13;1.30;;;;;;;14.37;91.86;101078.36;5097048;57;1139017;-66
2022/07/12 03:01:08;;;;;;;3.00;1.10;;;;;;;14.38;91.96;101085.37;5113897;57;1139065;-66
2022/07/12 03:06:13;;;;;;;8.23;1.50;;;;;;;14.48;92.27;101090.81;5127404;56;1139143;-66
2022/07/12 03:11:19;;;;;;;3.83;1.40;;;;;;;14.65;93.04;101094.22;5114062;56;1139078;-65
2022/07/12 03:16:24;;;;;;;5.03;1.50;;;;;;;14.65;92.30;101092.88;5117106;57;1139361;-66
2022/07/12 03:21:31;;;;;;;2.60;1.30;;;;;;;14.58;92.38;101094.36;5113714;57;1139252;-67
2022/07/12 03:26:36;;;;;;;1.47;1.00;;;;;;;14.61;92.40;101092.78;5093176;57;1139351;-66
2022/07/12 03:31:42;;;;;;;7.50;1.30;;;;;;;14.58;92.54;101101.87;5111374;56;1139004;-66
2022/07/12 03:36:49;;;;;;;2.40;1.33;;;;;;;14.56;93.14;101101.63;5180169;56;1139045;-66
2022/07/12 03:41:54;;;;;;;3.07;1.30;;;;;;;14.48;93.58;101090.81;5212628;56;1138997;-66
2022/07/12 03:47:01;;;;;;;3.93;2.20;;;;;;;14.47;94.23;101093.11;5172175;56;1139352;-66
2022/07/12 03:52:07;;;;;;;2.30;1.40;;;;;;;14.49;94.64;101092.50;5160316;56;1139236;-67
2022/07/12 03:57:16;;;;;;;4.20;1.70;;;;;;;14.47;95.75;101089.12;5168083;56;1139576;-67
2022/07/12 04:02:22;;;;;;;4.07;1.83;;;;;;;14.49;96.36;101088.02;5194428;56;1138861;-66
2022/07/12 04:07:28;;;;;;;3.43;1.83;;;;;;;14.58;96.89;101085.05;5160302;56;1139032;-68
2022/07/12 04:12:34;;;;;;;5.87;2.10;;;;;;;14.69;97.75;101080.97;5158688;56;1139302;-66
2022/07/12 04:17:40;;;;;;;8.30;2.27;;;;;;;14.76;100.00;101072.34;5160446;56;1138875;-67
2022/07/12 04:22:47;;;;;;;5.95;3.15;;;;;;;14.80;100.00;101072.92;5160159;56;1139413;-67
2022/07/12 04:27:55;;;;;;;7.70;4.37;;;;;;;14.87;100.00;101077.22;5160285;56;1139581;-67
2022/07/12 04:33:01;;;;;;;3.95;2.00;;;;;;;14.94;100.00;101076.56;5161365;56;1139119;-67
2022/07/12 04:38:08;;;;;;;8.13;2.13;;;;;;;14.97;100.00;101071.47;5146765;57;1139123;-67
2022/07/12 04:43:13;;;;;;;3.33;1.63;;;;;;;15.03;100.00;101068.24;5131115;57;1138679;-67
2022/07/12 04:48:19;;;;;;;3.17;1.50;;;;;;;15.14;100.00;101074.31;5156927;56;1139084;-66
2022/07/12 04:53:26;;;;;;;3.20;1.70;;;;;;;15.21;100.00;101070.63;5216681;56;1139609;-67
2022/07/12 04:58:32;;;;;;;6.10;1.87;;;;;;;15.30;100.00;101069.80;5131040;57;1138954;-66
2022/07/12 05:03:37;;;;;;;6.43;2.23;;;;;;;15.40;100.00;101066.70;5131074;57;1139384;-67
2022/07/12 05:08:43;;;;;;;4.33;1.43;;;;;;;15.53;100.00;101075.77;5131180;57;1139041;-66
2022/07/12 05:13:50;;;;;;;4.23;1.60;;;;;;;15.60;100.00;101065.41;5130840;57;1139100;-67
2022/07/12 05:18:56;;;;;;;8.44;1.90;;;;;;;15.72;100.00;101079.00;5129676;57;1139068;-67
2022/07/12 05:24:03;;;;;;;4.30;1.50;;;;;;;15.82;100.00;101083.35;5128787;57;1139636;-66
2022/07/12 05:29:10;;;;;;;3.17;1.37;;;;;;;15.99;100.00;101072.97;5170291;56;1139073;-67
2022/07/12 05:34:17;;;;;;;9.77;1.67;;;;;;;16.14;100.00;101068.41;5194293;56;1139486;-67
2022/07/12 05:39:23;;;;;;;2.93;1.53;;;;;;;16.30;100.00;101066.98;5167577;56;1138905;-67
2022/07/12 05:44:28;;;;;;;6.47;1.37;;;;;;;16.47;100.00;101062.25;5159291;56;1139240;-67
2022/07/12 05:49:34;;;;;;;3.50;1.20;;;;;;;16.70;100.00;101071.63;5205959;56;1136970;-68
2022/07/12 05:54:40;;;;;;;1.97;1.23;;;;;;;16.94;100.00;101071.14;5223414;56;1136939;-67
2022/07/12 05:59:45;;;;;;;4.37;1.43;;;;;;;17.15;100.00;101077.09;5224352;56;1141287;-69
2022/07/12 06:04:51;;;;;;;3.77;1.50;;;;;;;17.38;100.00;101071.36;5236638;56;1141167;-66
2022/07/12 06:09:57;;;;;;;3.30;1.20;;;;;;;17.54;99.27;101068.87;5160060;56;1141042;-67
2022/07/12 06:15:03;;;;;;;1.93;1.50;;;;;;;17.69;98.07;101066.55;5164730;56;1139042;-67
2022/07/12 06:20:11;;;;;;;4.30;1.10;;;;;;;17.73;96.22;101054.53;5132749;56;1139104;-67
2022/07/12 06:25:17;;;;;;;5.90;0.90;;;;;;;17.83;96.05;101060.17;5189023;56;1139370;-67
2022/07/12 06:30:23;;;;;;;0.93;0.60;;;;;;;17.99;95.08;101054.13;5187745;56;1139016;-66
2022/07/12 06:35:29;;;;;;;3.63;0.90;;;;;;;18.12;92.19;101054.58;5161645;56;1139361;-66
2022/07/12 06:40:35;;;;;;;4.37;0.90;;;;;;;18.22;92.09;101053.13;5153070;56;1139036;-67
2022/07/12 06:45:42;;;;;;;2.57;0.50;;;;;;;18.45;90.83;101052.14;5054337;58;1138977;-67
2022/07/12 06:50:47;;;;;;;0.78;0.47;;;;;;;18.58;88.40;101048.08;5077871;56;1139057;-69
2022/07/12 06:55:54;;;;;;;1.15;0.50;;;;;;;18.77;86.96;101047.52;5100689;57;1138963;-66
2022/07/12 07:00:59;;;;;;;4.70;0.87;;;;;;;18.80;84.46;101053.88;5072310;58;1138969;-66
2022/07/12 07:06:06;;;;;;;1.00;0.50;;;;;;;18.92;84.81;101049.45;5072530;58;1139369;-67
2022/07/12 07:11:11;;;;;;;5.95;0.42;;;;;;;19.12;83.80;101054.05;5072401;58;1138964;-66
2022/07/12 07:16:19;;;;;;;1.10;0.70;;;;;;;19.24;83.57;101048.75;5095293;57;1138988;-67
2022/07/12 07:21:25;;;;;;;0.42;0.42;;;;;;;19.35;82.04;101048.95;5138811;57;1139035;-67
2022/07/12 07:26:32;;;;;;;1.00;0.55;;;;;;;19.58;82.38;101044.67;5145887;56;1139175;-66
2022/07/12 07:31:39;;;;;;;0.40;0.40;;;;;;;19.71;81.15;101046.06;5162602;57;1139395;-66
2022/07/12 07:36:45;;;;;;;1.45;0.45;;;;;;;19.73;77.78;101046.20;5159112;57;1139243;-66
2022/07/12 07:41:51;;;;;;;2.55;0.50;;;;;;;19.80;76.59;101043.20;5150346;57;1139147;-67
2022/07/12 07:46:57;;;;;;;1.32;0.50;;;;;;;19.82;78.53;101047.07;5149420;57;1139072;-67
2022/07/12 07:52:03;;;;;;;0.30;0.30;;;;;;;19.91;77.86;101041.53;5137538;57;1139253;-68
2022/07/12 07:57:09;;;;;;;4.58;0.98;;;;;;;20.15;73.96;101037.19;5125324;56;1138958;-68
2022/07/12 08:02:14;;;;;;;0.82;0.40;;;;;;;20.28;75.79;101034.32;5075039;57;1139059;-68
2022/07/12 08:07:20;;;;;;;1.52;0.95;;;;;;;20.51;76.32;101036.32;5113666;56;1139456;-69
2022/07/12 08:12:26;;;;;;;5.37;0.60;;;;;;;20.56;74.44;101044.22;5107391;57;1139090;-68
2022/07/12 08:17:32;;;;;;;2.08;0.35;;;;;;;20.69;76.43;101043.68;5103687;56;1138972;-65
2022/07/12 08:22:45;;;;;;;21.33;1.37;;;;;;;20.66;71.69;101042.17;5099617;57;1139451;-66
2022/07/12 08:27:50;;;;;;;3.83;0.62;;;;;;;20.35;73.44;101046.05;5120636;57;1141098;-69
2022/07/12 08:32:56;;;;;;;1.37;0.65;;;;;;;20.48;76.49;101052.27;5111714;57;1139051;-68
2022/07/12 08:38:02;;;;;;;1.40;0.60;;;;;;;21.02;73.47;101048.45;5153736;57;1139329;-68
2022/07/12 08:43:08;;;;;;;2.42;0.50;;;;;;;21.40;72.22;101053.52;5169603;56;1139177;-69
2022/07/12 08:48:15;;;;;;;2.40;0.60;;;;;;;21.34;68.37;101046.16;5221688;56;1139054;-69
2022/07/12 08:53:20;;;;;;;1.10;0.68;;;;;;;21.25;70.12;101054.77;5205839;56;1139121;-69
2022/07/12 08:58:27;;;;;;;0.80;0.50;;;;;;;21.13;70.58;101051.27;5183749;56;1139031;-69
2022/07/12 09:03:32;;;;;;;4.08;0.70;;;;;;;20.94;69.84;101059.23;5107204;56;1139204;-70
2022/07/12 09:08:40;;;;;;;1.37;0.65;;;;;;;21.12;71.70;101060.34;5157263;55;1139031;-68
2022/07/12 09:13:55;;;;;;;5.45;0.50;;;;;;;21.51;69.32;101055.83;5162294;56;1137202;-67
2022/07/12 09:19:19;;;;;;;3.10;0.30;;;;;;;21.89;67.74;101056.74;5161875;56;1136915;-67
2022/07/12 09:24:28;;;;;;;0.42;0.33;;;;;;;21.98;66.45;101045.42;5161004;56;1136766;-68
2022/07/12 09:29:34;;;;;;;1.25;0.30;;;;;;;22.42;66.94;101046.91;5162490;57;1137101;-67
2022/07/12 09:40:06;;;;;;;1.95;0.70;;;;;;;22.25;62.01;101048.08;5163846;56;1137000;-68
2022/07/12 09:45:12;;;;;;;2.75;0.50;;;;;;;21.84;62.61;101058.31;5164595;56;1137267;-68
2022/07/12 09:50:18;;;;;;;0.82;0.53;;;;;;;21.91;65.79;101059.26;5244534;56;1136963;-68
2022/07/12 09:55:26;;;;;;;1.22;0.40;;;;;;;22.37;65.38;101047.45;5217517;55;1135138;-68
2022/07/12 10:00:33;;;;;;;1.95;0.30;;;;;;;22.89;62.15;101039.03;5184148;57;21166;-68
2022/07/12 10:05:41;;;;;;;1.15;0.40;;;;;;;23.31;61.64;101032.41;5193213;55;1134825;-68
2022/07/12 10:10:50;;;;;;;1.53;0.47;;;;;;;22.94;58.28;101032.03;5241768;56;1139140;-68
2022/07/12 10:16:04;;;;;;;0.83;0.30;;;;;;;22.72;60.70;101028.39;5191744;56;1139005;-68
2022/07/12 10:21:23;;;;;;;0.85;0.30;;;;;;;22.86;59.66;101024.05;5162628;56;1139138;-69
2022/07/12 10:26:39;;;;;;;0.13;0.13;;;;;;;23.25;59.06;101020.17;5161737;56;1139043;-68
2022/07/12 10:31:45;;;;;;;0.60;0.47;;;;;;;23.26;55.54;101038.05;5162380;56;1139060;-68
2022/07/12 10:37:00;;;;;;;1.05;0.50;;;;;;;23.15;56.04;101030.77;5162495;56;1139064;-68
2022/07/12 10:42:15;;;;;;;0.30;0.30;;;;;;;23.45;57.87;101017.20;5188058;56;1139073;-68
2022/07/12 10:47:21;;;;;;;2.33;0.53;;;;;;;23.91;56.78;101011.47;5197787;56;1138975;-68
2022/07/12 10:52:28;;;;;;;5.50;0.70;;;;;;;24.06;54.77;101015.77;5234232;56;1139054;-68
2022/07/12 10:57:50;;;;;;;0.65;0.20;;;;;;;24.12;52.33;101015.00;5167431;56;1139065;-68
2022/07/12 11:02:55;;;;;;;0.20;0.20;;;;;;;23.79;53.21;101017.91;5190498;56;1138372;-68
2022/07/12 11:08:01;;;;;;;0.70;0.30;;;;;;;23.59;54.10;101016.86;5149743;57;1139263;-68
2022/07/12 11:13:22;;;;;;;0.60;0.20;;;;;;;23.91;52.91;101020.41;5188768;56;1139016;-68
2022/07/12 11:18:33;;;;;;;0.40;0.40;;;;;;;24.18;51.59;101011.49;5149090;57;1138554;-68
2022/07/12 11:23:45;;;;;;;5.12;0.78;;;;;;;24.12;52.83;101020.92;5148822;57;1139133;-68
2022/07/12 11:28:48;;;;;;;4.58;0.50;;;;;;;23.80;49.71;101020.42;5149241;57;1139002;-67
2022/07/12 11:33:54;;;;;;;0.17;0.17;;;;;;;23.83;53.37;101011.91;5205009;56;1139036;-67
2022/07/12 11:39:00;;;;;;;1.20;0.50;;;;;;;24.31;48.69;101007.25;5152511;56;1139023;-68
2022/07/12 11:44:06;;;;;;;0.33;0.33;;;;;;;24.43;49.88;101010.59;5134293;56;1139020;-68
2022/07/12 11:49:16;;;;;;;4.30;0.50;;;;;;;24.29;47.33;101011.49;5177299;56;1139029;-68
2022/07/12 11:54:26;;;;;;;3.20;0.30;;;;;;;24.46;48.60;101000.70;5190150;56;1136977;-68
2022/07/12 11:59:31;;;;;;;0.90;0.40;;;;;;;24.76;49.16;100998.59;5187758;56;1136960;-68
2022/07/12 12:04:52;;;;;;;0.88;0.50;;;;;;;24.27;47.64;100995.17;5201854;56;1136986;-68
2022/07/12 12:10:17;;;;;;;0.40;0.30;;;;;;;24.16;48.71;100995.14;5152423;56;1137203;-68
2022/07/12 12:15:34;;;;;;;1.22;0.42;;;;;;;24.45;49.16;100992.27;5158717;56;1136986;-69
2022/07/12 12:20:45;;;;;;;1.40;0.60;;;;;;;24.47;50.06;100986.66;5135724;56;1136948;-68
2022/07/12 12:25:51;;;;;;;1.45;0.40;;;;;;;24.51;50.72;100987.43;5209667;56;1137027;-68
2022/07/12 12:30:59;;;;;;;1.20;0.20;;;;;;;24.52;47.95;101000.44;5245935;55;1134877;-67
2022/07/12 12:36:27;;;;;;;0.30;0.30;;;;;;;24.18;46.12;101003.38;5294754;55;1138987;-69
2022/07/12 12:41:40;;;;;;;5.40;0.40;;;;;;;24.39;45.02;100988.19;5203884;56;1139264;-68
2022/07/12 12:52:23;;;;;;;0.75;0.40;;;;;;;24.81;43.34;100983.13;5194666;56;1139024;-68
2022/07/12 12:57:28;;;;;;;0.30;0.30;;;;;;;24.51;43.26;100979.84;5130936;57;1139003;-69
2022/07/12 13:02:34;;;;;;;1.25;0.25;;;;;;;24.78;41.83;100965.93;5065413;57;1139095;-68
2022/07/12 13:07:40;;;;;;;0.20;0.20;;;;;;;24.95;43.00;100972.70;5064613;58;1139254;-68
2022/07/12 13:12:45;;;;;;;0.75;0.30;;;;;;;25.03;42.15;100973.90;5091028;57;1139035;-68
2022/07/12 13:17:52;;;;;;;4.47;0.28;;;;;;;25.20;43.32;100983.34;5157896;57;1139021;-68
2022/07/12 13:22:58;;;;;;;2.58;0.68;;;;;;;25.68;44.39;100971.05;5157713;57;1138967;-68
2022/07/12 13:28:03;;;;;;;2.62;0.47;;;;;;;26.15;41.15;100956.98;5100900;57;1139345;-67
2022/07/12 13:33:09;;;;;;;1.70;0.23;;;;;;;26.26;38.80;100963.98;5076880;57;1139058;-68
2022/07/12 13:38:14;;;;;;;0.20;0.20;;;;;;;26.24;40.56;100974.20;5124027;56;1139043;-68
2022/07/12 13:43:20;;;;;;;4.60;0.40;;;;;;;26.07;40.75;100967.53;5139589;56;1139066;-69
2022/07/12 13:48:26;;;;;;;2.92;0.42;;;;;;;26.26;42.59;100970.76;5124167;57;1138985;-69
2022/07/12 13:53:32;;;;;;;2.85;0.40;;;;;;;26.41;42.18;100967.84;5149817;56;1139264;-68
2022/07/12 13:58:37;;;;;;;2.83;1.05;;;;;;;26.31;41.62;100978.79;5150075;56;1139003;-68
2022/07/12 14:03:43;;;;;;;2.22;0.37;;;;;;;25.86;41.25;100981.28;5150120;56;1139194;-69
2022/07/12 14:08:49;;;;;;;1.02;0.30;;;;;;;25.54;41.22;100987.77;5170412;57;1139237;-69
2022/07/12 14:13:56;;;;;;;0.20;0.20;;;;;;;25.53;40.86;100981.20;5210376;56;1139067;-68
2022/07/12 14:19:01;;;;;;;0.17;0.17;;;;;;;25.36;38.40;100983.45;5221262;56;1139319;-68
2022/07/12 14:24:09;;;;;;;3.80;0.40;;;;;;;25.49;38.50;100977.27;5226726;56;1139302;-69
2022/07/12 14:29:15;;;;;;;1.37;0.20;;;;;;;25.42;39.66;100984.00;5120612;56;1139091;-68
2022/07/12 14:34:21;;;;;;;0.78;0.30;;;;;;;25.27;38.90;100978.44;5043746;57;1139240;-67
2022/07/12 14:39:26;;;;;;;0.20;0.20;;;;;;;25.56;36.67;100965.38;5035793;57;1139059;-68
2022/07/12 14:44:32;;;;;;;0.30;0.20;;;;;;;25.77;36.50;100957.62;5119600;57;1139003;-68
2022/07/12 14:49:39;;;;;;;0.25;0.25;;;;;;;25.82;36.91;100965.12;5085360;57;1139086;-68
2022/07/12 14:54:45;;;;;;;0.20;0.20;;;;;;;26.03;36.76;100960.85;5046954;57;1139130;-68
2022/07/12 14:59:51;;;;;;;2.17;0.23;;;;;;;26.13;35.53;100948.22;5120813;57;1139083;-68
2022/07/12 15:05:02;;;;;;;0.50;0.30;;;;;;;26.15;35.99;100955.10;5077785;57;1136975;-67
2022/07/12 15:10:04;;;;;;;103.17;65.47;;;;;;;26.15;34.88;100956.98;5128546;56;1136961;-68
2022/07/12 15:15:10;;;;;;;4.53;1.62;;;;;;;26.25;36.73;100951.98;5162540;57;1143380;-68
2022/07/12 15:20:16;;;;;;;1.57;1.40;;;;;;;26.36;35.79;100952.72;5127644;57;1136988;-68
2022/07/12 15:25:22;;;;;;;3.87;0.82;;;;;;;26.42;35.40;100955.11;5164023;56;1137090;-68
2022/07/12 15:30:28;;;;;;;1.98;1.20;;;;;;;25.98;34.03;100966.05;5135659;56;1137145;-67
2022/07/12 15:35:34;;;;;;;1.65;0.50;;;;;;;25.38;35.17;100958.36;5084225;57;1136964;-67
2022/07/12 15:40:40;;;;;;;0.65;0.65;;;;;;;25.30;35.85;100966.69;5116557;57;1136983;-68
2022/07/12 15:45:46;;;;;;;1.30;0.90;;;;;;;25.08;36.47;100959.73;5158529;57;1136982;-68
2022/07/12 15:50:53;;;;;;;5.30;0.70;;;;;;;24.91;37.08;100957.87;5084178;57;1136991;-67
2022/07/12 15:56:03;;;;;;;0.60;0.60;;;;;;;24.96;38.18;100961.36;4905301;59;1137030;-67
2022/07/12 16:01:09;;;;;;;1.12;0.82;;;;;;;25.13;38.05;100950.50;5061438;58;1137344;-68
2022/07/12 16:06:15;;;;;;;1.75;1.05;;;;;;;25.27;37.68;100951.37;5092275;57;1137213;-67
2022/07/12 16:11:21;;;;;;;1.55;0.88;;;;;;;25.37;38.25;100932.32;4988307;58;1137023;-66
2022/07/12 16:16:26;;;;;;;2.35;0.78;;;;;;;25.47;36.84;100938.19;4991897;59;1137016;-66
2022/07/12 16:21:33;;;;;;;2.25;1.47;;;;;;;25.47;36.83;100931.42;4992351;59;1136985;-67
2022/07/12 16:26:39;;;;;;;2.02;0.75;;;;;;;25.34;36.70;100934.11;4991792;59;1137023;-66
2022/07/12 16:31:45;;;;;;;8.03;0.85;;;;;;;25.41;38.49;100928.17;4992292;58;1135260;-67
2022/07/12 16:36:51;;;;;;;3.25;0.75;;;;;;;25.52;39.36;100921.30;4992025;58;1135008;-66
2022/07/12 16:41:57;;;;;;;2.65;0.70;;;;;;;25.65;39.52;100933.56;4992483;58;1138601;-66
2022/07/12 16:47:03;;;;;;;1.17;0.87;;;;;;;25.61;38.78;100928.72;5082000;57;1139133;-66
2022/07/12 16:52:09;;;;;;;3.12;0.60;;;;;;;25.62;38.73;100930.42;5149085;57;1139122;-67
2022/07/12 16:57:14;;;;;;;2.17;0.77;;;;;;;25.47;37.73;100921.11;5145707;57;1139030;-67
2022/07/12 17:02:20;;;;;;;4.33;0.82;;;;;;;25.36;36.97;100931.20;5117101;57;1139044;-66
2022/07/12 17:07:27;;;;;;;3.33;0.57;;;;;;;25.21;37.97;100929.99;5092508;57;1139059;-67
2022/07/12 17:12:33;;;;;;;4.47;1.15;;;;;;;25.12;37.33;100928.01;5106126;57;1139082;-68
2022/07/12 17:17:38;;;;;;;2.30;0.70;;;;;;;24.96;37.52;100933.78;5148685;57;1139156;-67
2022/07/12 17:22:44;;;;;;;3.15;1.65;;;;;;;24.83;38.17;100926.94;5139588;57;1139425;-67
2022/07/12 17:27:50;;;;;;;15.65;2.20;;;;;;;24.83;38.64;100916.95;5139905;57;1139325;-67
2022/07/12 17:33:01;;;;;;;2.10;1.00;;;;;;;24.79;39.15;100910.27;5136784;57;1141102;-67
2022/07/12 17:38:08;;;;;;;2.13;1.00;;;;;;;24.73;38.70;100919.22;5072354;57;1139062;-67
2022/07/12 17:43:14;;;;;;;2.27;1.20;;;;;;;24.60;38.80;100919.13;5024521;57;1139110;-68
2022/07/12 17:48:21;;;;;;;3.85;1.00;;;;;;;24.46;39.31;100906.58;5118099;57;1139201;-68
2022/07/12 17:53:27;;;;;;;1.47;0.75;;;;;;;24.36;39.97;100898.84;5054026;58;1139114;-69
2022/07/12 17:58:43;;;;;;;4.45;0.80;;;;;;;24.22;40.45;100909.23;5027104;58;1139342;-68
2022/07/12 18:03:52;;;;;;;1.87;1.40;;;;;;;24.07;41.29;100903.94;5045238;58;1139139;-68
2022/07/12 18:08:58;;;;;;;2.92;0.85;;;;;;;23.83;42.30;100903.85;5069804;58;1139015;-68
2022/07/12 18:19:27;;;;;;;2.87;1.80;;;;;;;23.78;44.64;100908.19;5063762;58;1141065;-68
2022/07/12 18:24:33;;;;;;;4.10;1.42;;;;;;;23.67;43.62;100896.58;5033040;58;1139093;-68
2022/07/12 18:29:38;;;;;;;2.62;0.80;;;;;;;23.51;44.93;100900.38;5037491;57;1139009;-68
2022/07/12 18:34:48;;;;;;;2.25;0.95;;;;;;;23.32;45.60;100903.69;5030954;58;1139255;-69
2022/07/12 18:39:55;;;;;;;0.93;0.93;;;;;;;23.16;46.31;100906.12;5078076;57;1139005;-69
2022/07/12 18:45:03;;;;;;;0.70;0.70;;;;;;;23.06;46.44;100906.45;5042691;57;1138988;-70
2022/07/12 18:50:10;;;;;;;1.20;0.80;;;;;;;22.97;47.05;100910.27;4976578;58;1139068;-69
2022/07/12 18:55:15;;;;;;;3.02;1.05;;;;;;;22.81;47.20;100921.28;5114710;56;1139085;-70
2022/07/12 19:00:24;;;;;;;6.58;3.35;;;;;;;22.68;47.75;100926.48;5133539;56;1139205;-70
2022/07/12 19:05:31;;;;;;;4.10;3.80;;;;;;;22.52;48.17;100924.81;5109434;57;1139109;-69
2022/07/12 19:10:36;;;;;;;2.20;0.85;;;;;;;22.38;48.52;100932.40;5172096;56;1139001;-69
2022/07/12 19:15:42;;;;;;;3.60;3.33;;;;;;;22.29;48.94;100936.22;5204450;56;1139062;-67
2022/07/12 19:20:48;;;;;;;4.58;1.60;;;;;;;22.15;49.15;100944.62;5209441;56;1136932;-69
2022/07/12 19:25:54;;;;;;;4.58;2.58;;;;;;;22.12;49.69;100942.79;5205617;56;1136951;-69
2022/07/12 19:31:00;;;;;;;5.22;3.95;;;;;;;22.08;49.59;100943.66;5202377;56;1136875;-70
2022/07/12 19:36:06;;;;;;;4.60;3.87;;;;;;;22.01;49.92;100954.83;5163054;56;1137160;-67
2022/07/12 19:41:12;;;;;;;1.17;0.95;;;;;;;21.86;50.38;100952.58;5162642;56;1137043;-69
2022/07/12 19:46:17;;;;;;;1.90;0.80;;;;;;;21.68;51.03;100962.34;5154724;56;1137198;-68
2022/07/12 19:51:24;;;;;;;5.40;4.90;;;;;;;21.51;51.41;100953.55;5163806;57;1136963;-68
2022/07/12 19:56:32;;;;;;;4.53;3.10;;;;;;;21.37;51.83;100967.27;5117222;57;1137089;-68
2022/07/12 20:01:38;;;;;;;2.60;2.40;;;;;;;21.27;52.24;100971.19;5105984;57;1136944;-68
2022/07/12 20:06:44;;;;;;;5.37;4.05;;;;;;;21.17;53.11;100983.50;5117180;57;1136918;-70
2022/07/12 20:11:50;;;;;;;9.30;5.42;;;;;;;21.05;53.40;100983.56;5170985;56;1136983;-70
2022/07/12 20:16:56;;;;;;;7.35;4.60;;;;;;;20.90;53.77;100992.04;5194440;56;1136974;-69
2022/07/12 20:22:01;;;;;;;31.75;26.30;;;;;;;20.65;54.76;100983.20;5198925;56;1136962;-69
2022/07/12 20:27:07;;;;;;;3.27;2.05;;;;;;;20.46;55.22;100984.97;5183003;56;1141093;-69
2022/07/12 20:32:12;;;;;;;13.70;1.60;;;;;;;20.41;55.59;100984.12;5169273;56;1136958;-68
2022/07/12 20:37:18;;;;;;;10.55;9.35;;;;;;;20.34;55.82;100993.33;5187799;56;1139190;-68
2022/07/12 20:42:24;;;;;;;3.22;1.67;;;;;;;20.25;56.38;100992.18;5190701;56;1139327;-68
2022/07/12 20:47:31;;;;;;;42.05;30.60;;;;;;;20.10;57.18;100982.63;5189839;56;1137063;-68
2022/07/12 20:52:36;;;;;;;22.70;16.25;;;;;;;19.92;58.03;100978.78;5191450;56;1139014;-68
2022/07/12 20:57:42;;;;;;;92.37;46.90;;;;;;;19.86;59.06;100971.39;5191237;56;1139237;-68
2022/07/12 21:02:49;;;;;;;33.76;17.18;;;;;;;19.79;59.54;100972.24;5209743;56;1143456;-71
2022/07/12 21:07:55;;;;;;;49.62;26.58;;;;;;;19.72;60.24;100976.08;5039151;57;1142680;-68
2022/07/12 21:13:01;;;;;;;41.63;23.30;;;;;;;19.62;60.95;100977.59;5175374;56;1143209;-69
2022/07/12 21:18:07;;;;;;;7.53;4.10;;;;;;;19.55;62.32;100977.94;5148843;57;1143213;-68
2022/07/12 21:23:13;;;;;;;2.87;1.35;;;;;;;19.49;63.13;100969.67;5145099;57;1139108;-69
2022/07/12 21:28:18;;;;;;;4.20;1.27;;;;;;;19.45;63.87;100971.00;5136015;57;1139257;-69
2022/07/12 21:33:24;;;;;;;3.52;0.80;;;;;;;19.40;64.47;100962.09;5074533;58;1139043;-68
2022/07/12 21:38:31;;;;;;;1.85;1.10;;;;;;;19.35;65.03;100968.98;5060809;58;1139067;-70
2022/07/12 21:43:36;;;;;;;1.65;0.90;;;;;;;19.28;65.76;100966.94;5068682;58;1139030;-69
2022/07/12 21:48:43;;;;;;;1.82;0.95;;;;;;;19.18;66.56;100970.78;5068020;57;1140318;-70
2022/07/12 21:53:49;;;;;;;1.90;1.10;;;;;;;19.07;67.19;100969.75;5077864;57;1139324;-69
2022/07/12 21:58:55;;;;;;;1.37;1.27;;;;;;;18.96;66.95;100968.19;5038760;57;1139206;-69
2022/07/12 22:04:00;;;;;;;1.90;1.12;;;;;;;18.91;67.48;100971.88;5065699;57;1139081;-69
2022/07/12 22:09:06;;;;;;;0.85;0.80;;;;;;;18.80;68.31;100964.95;5079685;57;1139012;-69
2022/07/12 22:14:11;;;;;;;3.40;1.67;;;;;;;18.69;68.90;100964.40;5098925;57;1139206;-70
2022/07/12 22:19:17;;;;;;;3.02;0.98;;;;;;;18.55;70.07;100961.30;5061771;58;1138716;-68
2022/07/12 22:24:23;;;;;;;2.65;1.10;;;;;;;18.44;70.47;100958.90;5060353;57;1139707;-69
2022/07/12 22:29:28;;;;;;;1.25;1.07;;;;;;;18.37;71.21;100951.14;5105782;57;1139243;-70
2022/07/12 22:34:34;;;;;;;2.67;1.07;;;;;;;18.33;71.65;100953.83;5113421;57;1139040;-69
2022/07/12 22:39:40;;;;;;;1.52;1.22;;;;;;;18.24;72.81;100949.40;5112055;57;1138949;-70
2022/07/12 22:44:46;;;;;;;8.20;1.40;;;;;;;18.13;74.29;100938.96;5113130;57;1139042;-69
2022/07/12 22:49:51;;;;;;;2.42;1.82;;;;;;;18.12;74.78;100943.48;5107994;57;1139115;-68
2022/07/12 22:54:57;;;;;;;2.37;2.12;;;;;;;18.11;75.34;100949.83;5169321;56;1139199;-69
2022/07/12 23:00:03;;;;;;;4.03;2.13;;;;;;;18.07;76.04;100940.91;5212057;56;1139006;-69
2022/07/12 23:05:09;;;;;;;5.10;1.87;;;;;;;18.05;76.35;100946.42;5220650;56;1139443;-69
2022/07/12 23:10:15;;;;;;;8.67;2.20;;;;;;;18.04;76.63;100943.90;5241772;56;1139001;-69
2022/07/12 23:15:21;;;;;;;2.02;1.82;;;;;;;18.02;77.54;100945.92;5241606;56;1139290;-68
2022/07/12 23:20:27;;;;;;;2.05;1.87;;;;;;;17.97;77.31;100935.67;5227511;56;1139072;-68
2022/07/12 23:25:33;;;;;;;1.90;1.80;;;;;;;17.97;77.75;100937.02;5192055;56;1138992;-69
2022/07/12 23:30:38;;;;;;;4.75;2.02;;;;;;;17.98;78.64;100924.48;5198893;56;1139346;-69